Airfield :
LOGIN :

Register | Disclaimer

   EN    FR    IT 

 










Legend :    VFR   Marginal VFR   IFR   Intensive IFR   Very Intensive IFR
Visi :
Ceiling :
>= 8 km
>= 3000ft
5 to 8 km
1000 to 3000 ft
1500m to 5 km
500 to 1000 ft
800 to 1500m
200 to 500 ft
< 800m
< 200 ft
Symbols :   Thunderstorms  Fog  Heavy snow  Heavy precipitations  Wind > 20 kt
SIGMETs :     Misc.  Thunderstorms  Icing  Turbulence  Mountain Waves  Volcanic Ashes







- Airport Elevation : 87 ft
- IATA code : AHO


LIEA - Fertilia Alghero

CURRENT METAR :
  • 200650Z VRB02KT CAVOK 23/16 Q1013

EXPIRED METARs :
  • 200620Z 05005KT CAVOK 21/17 Q1013
  • 200550Z 05003KT 340V080 CAVOK 19/15 Q1013
  • 200520Z 07002KT 9999 FEW006 17/14 Q1013
  • 200450Z VRB01KT 9999 FEW006 16/13 Q1014
  • 200420Z VRB02KT 9999 BKN006 15/13 Q1014
  • 200350Z 09003KT 9999 BKN006 13/12 Q1014

TAF TAF LIEA
Valid from the 20 at 06:00 until the 21 at 06:00 UTC


200500Z 2006/2106 VRB06KT CAVOK
No reported NOTAMs for that airfield.



MET'MAP, your aeronautical weather chart ! - Copyright ORBIFLY December 2007 - Disclaimer

ORBIFLY MET'MAP TEAM :

Programming & Development : Alexandra Zaïnal
Concept & Development : Baudouin d'Aumeries
Co-Development & Prog : Marc-Olivier Méhu
Technical & hardware support : Manuel Goepfert

Contact : metmap@orbifly.com




SOURCES & CREDITS :

   NOAA